createdAt,value
2018-07-06T00:01:45.368Z,43.70
2018-07-06T00:06:59.982Z,43.40
2018-07-06T00:12:14.536Z,43.10
2018-07-06T00:17:29.243Z,43.20
2018-07-06T00:22:43.784Z,43.10
2018-07-06T00:27:58.623Z,43.10
2018-07-06T00:33:13.311Z,43.10
2018-07-06T00:38:27.776Z,42.90
2018-07-06T00:43:42.517Z,42.70
2018-07-06T00:48:57.282Z,42.80
2018-07-06T00:59:20.391Z,42.70
2018-07-06T01:04:34.937Z,42.50
2018-07-06T01:09:49.576Z,42.60
2018-07-06T01:15:09.657Z,42.50
2018-07-06T01:20:24.512Z,42.50
2018-07-06T01:25:39.152Z,42.30
2018-07-06T01:30:53.823Z,42.30
2018-07-06T01:36:08.456Z,42.20
2018-07-06T01:41:23.239Z,42.00
2018-07-06T01:46:37.935Z,42.00
2018-07-06T01:51:53.199Z,42.00
2018-07-06T01:57:07.786Z,41.90
2018-07-06T02:02:22.741Z,41.80
2018-07-06T02:07:37.463Z,41.70
2018-07-06T02:12:52.255Z,41.40
2018-07-06T02:18:07.142Z,41.50
2018-07-06T02:23:21.854Z,41.40
2018-07-06T02:28:36.457Z,41.30
2018-07-06T02:33:51.084Z,41.20
2018-07-06T02:39:05.857Z,41.20
2018-07-06T02:44:20.478Z,41.10
2018-07-06T02:49:35.108Z,41.00
2018-07-06T02:54:49.920Z,41.00
2018-07-06T03:00:04.669Z,40.80
2018-07-06T03:05:19.279Z,40.80
2018-07-06T03:10:33.689Z,40.80
2018-07-06T03:15:48.091Z,40.80
2018-07-06T03:21:02.933Z,40.70
2018-07-06T03:26:17.885Z,40.70
2018-07-06T03:31:32.643Z,40.60
2018-07-06T03:36:47.213Z,40.60
2018-07-06T03:42:01.847Z,40.50
2018-07-06T03:47:16.835Z,41.10
2018-07-06T03:52:31.602Z,40.30
2018-07-06T03:57:46.177Z,40.20
2018-07-06T04:03:00.889Z,40.30
2018-07-06T04:08:15.976Z,40.20
2018-07-06T04:13:31.169Z,40.20
2018-07-06T04:18:45.658Z,40.20
2018-07-06T04:24:00.192Z,40.00
2018-07-06T04:29:16.178Z,40.10
2018-07-06T04:34:30.827Z,40.00
2018-07-06T04:39:45.419Z,40.00
2018-07-06T04:45:00.112Z,40.10
2018-07-06T04:50:14.786Z,40.10
2018-07-06T05:00:37.846Z,40.00
2018-07-06T05:05:52.653Z,40.00
2018-07-06T05:11:07.353Z,39.90
2018-07-06T05:16:21.851Z,39.90
2018-07-06T05:21:36.894Z,39.90
2018-07-06T05:26:52.213Z,39.90
2018-07-06T05:32:07.000Z,39.90
2018-07-06T05:37:21.654Z,39.90
2018-07-06T05:42:36.602Z,39.80
2018-07-06T05:47:52.511Z,39.80
2018-07-06T05:53:06.999Z,39.80
2018-07-06T05:58:21.554Z,39.70
2018-07-06T06:03:36.299Z,39.70
2018-07-06T06:08:38.555Z,39.60
2018-07-06T06:13:43.376Z,39.60
2018-07-06T06:18:46.872Z,39.60
2018-07-06T06:23:49.994Z,39.50
2018-07-06T06:28:53.603Z,39.40
2018-07-06T06:33:58.931Z,39.40
2018-07-06T06:39:02.354Z,39.30
2018-07-06T06:44:07.060Z,39.30
2018-07-06T06:49:10.380Z,39.20
2018-07-06T06:54:14.680Z,39.20
2018-07-06T06:59:18.309Z,39.10
2018-07-06T07:04:22.085Z,39.10
2018-07-06T07:09:25.606Z,39.20
2018-07-06T07:14:29.749Z,39.20
2018-07-06T07:19:34.181Z,39.20
2018-07-06T07:24:37.937Z,39.20
2018-07-06T07:29:42.031Z,39.20
2018-07-06T07:34:46.628Z,39.20
2018-07-06T07:39:50.154Z,39.30
2018-07-06T07:44:53.403Z,39.30
2018-07-06T07:49:56.590Z,39.40
2018-07-06T07:55:00.201Z,39.30
2018-07-06T08:00:03.462Z,39.40
2018-07-06T08:05:06.741Z,39.30
2018-07-06T08:10:10.116Z,39.30
2018-07-06T08:15:13.325Z,39.20
2018-07-06T08:20:17.960Z,39.20
2018-07-06T08:25:21.217Z,39.30
2018-07-06T08:30:24.494Z,39.40
2018-07-06T08:35:39.090Z,39.40
2018-07-06T08:40:42.304Z,39.30
2018-07-06T08:45:45.694Z,39.40
2018-07-06T08:50:49.088Z,39.40
2018-07-06T08:55:52.349Z,39.40
2018-07-06T09:00:55.837Z,39.50
2018-07-06T09:05:59.054Z,39.40
2018-07-06T09:11:02.463Z,39.40
2018-07-06T09:16:05.858Z,39.60
2018-07-06T09:21:10.086Z,39.50
2018-07-06T09:26:13.812Z,39.40
2018-07-06T09:31:16.572Z,39.50
2018-07-06T09:36:19.866Z,39.50
2018-07-06T09:41:23.065Z,39.50
2018-07-06T09:46:26.589Z,39.70
2018-07-06T09:51:31.056Z,39.70
2018-07-06T09:56:34.281Z,39.60
2018-07-06T10:01:37.545Z,39.70
2018-07-06T10:06:40.844Z,39.80
2018-07-06T10:11:44.176Z,39.70
2018-07-06T10:16:47.718Z,40.00
2018-07-06T10:21:51.101Z,40.40
2018-07-06T10:26:54.254Z,40.60
2018-07-06T10:32:08.917Z,40.70
2018-07-06T10:37:12.139Z,41.00
2018-07-06T10:42:15.370Z,40.80
2018-07-06T10:47:18.657Z,41.00
2018-07-06T10:52:21.987Z,41.40
2018-07-06T10:57:25.345Z,41.70
2018-07-06T11:02:28.542Z,41.70
2018-07-06T11:07:31.966Z,42.00
2018-07-06T11:12:36.754Z,41.70
2018-07-06T11:17:40.127Z,42.10
2018-07-06T11:22:43.609Z,42.10
2018-07-06T11:27:46.815Z,42.20
2018-07-06T11:32:50.052Z,42.10
2018-07-06T11:37:53.327Z,42.30
2018-07-06T11:42:56.631Z,42.30
2018-07-06T11:47:59.966Z,42.40
2018-07-06T11:53:03.176Z,42.60
2018-07-06T11:58:06.457Z,42.30
2018-07-06T12:03:09.743Z,42.50
2018-07-06T12:08:12.995Z,42.50
2018-07-06T12:13:17.805Z,42.60
2018-07-06T12:18:21.036Z,42.50
2018-07-06T12:23:24.266Z,42.50
2018-07-06T12:28:27.460Z,42.40
2018-07-06T12:33:30.718Z,42.50
2018-07-06T12:38:34.618Z,44.50
2018-07-06T12:43:37.905Z,45.60
2018-07-06T12:48:42.609Z,45.40
2018-07-06T12:53:45.818Z,46.10
2018-07-06T12:58:49.288Z,46.40
2018-07-06T13:03:52.361Z,46.00
2018-07-06T13:08:55.618Z,46.20
2018-07-06T13:13:59.666Z,46.30
2018-07-06T13:19:02.977Z,46.40
2018-07-06T13:24:06.760Z,46.60
2018-07-06T13:34:13.826Z,46.40
2018-07-06T13:39:17.451Z,46.70
2018-07-06T13:44:21.712Z,46.70
2018-07-06T13:49:25.233Z,46.70
2018-07-06T13:54:28.440Z,46.70
2018-07-06T13:59:31.850Z,46.90
2018-07-06T14:04:35.223Z,46.90
2018-07-06T14:09:38.596Z,46.70
2018-07-06T14:14:41.861Z,46.20
2018-07-06T14:19:45.128Z,46.70
2018-07-06T14:24:48.670Z,46.40
2018-07-06T14:29:52.386Z,45.90
2018-07-06T14:34:55.663Z,45.60
2018-07-06T14:39:58.871Z,46.50
2018-07-06T14:45:02.192Z,45.30
2018-07-06T14:50:06.891Z,45.90
2018-07-06T14:55:10.103Z,45.40
2018-07-06T15:00:13.307Z,45.40
2018-07-06T15:05:16.581Z,45.30
2018-07-06T15:10:19.844Z,45.10
2018-07-06T15:15:23.247Z,45.10
2018-07-06T15:20:26.496Z,44.60
2018-07-06T15:25:29.714Z,44.60
2018-07-06T15:30:33.123Z,44.50
2018-07-06T15:35:36.326Z,44.30
2018-07-06T15:40:39.614Z,44.00
2018-07-06T15:45:43.194Z,44.20
2018-07-06T15:50:46.725Z,43.90
2018-07-06T15:55:50.264Z,43.60
2018-07-06T16:00:53.469Z,43.60
2018-07-06T16:05:56.746Z,43.50
2018-07-06T16:11:00.230Z,43.40
2018-07-06T16:16:03.490Z,43.20
2018-07-06T16:21:06.895Z,43.20
2018-07-06T16:26:10.985Z,43.00
2018-07-06T16:31:14.302Z,43.10
2018-07-06T16:36:17.651Z,42.90
2018-07-06T16:41:21.602Z,42.70
2018-07-06T16:46:24.966Z,42.60
2018-07-06T16:51:28.185Z,42.40
2018-07-06T16:56:31.557Z,42.30
2018-07-06T17:01:34.821Z,42.30
2018-07-06T17:06:38.061Z,42.20
2018-07-06T17:11:41.298Z,42.10
2018-07-06T17:16:44.579Z,42.10
2018-07-06T17:21:48.302Z,42.00
2018-07-06T17:26:51.568Z,41.90
2018-07-06T17:31:55.021Z,41.30
2018-07-06T17:36:58.338Z,41.30
2018-07-06T17:42:01.955Z,41.00
2018-07-06T17:47:05.647Z,40.80
2018-07-06T17:52:08.897Z,40.80
2018-07-06T17:57:12.158Z,39.80
2018-07-06T18:02:15.446Z,40.30
2018-07-06T18:07:18.843Z,40.30
2018-07-06T18:12:22.154Z,39.60
2018-07-06T18:17:25.736Z,38.90
2018-07-06T18:22:29.543Z,38.90
2018-07-06T18:27:33.123Z,38.50
2018-07-06T18:32:36.426Z,37.70
2018-07-06T18:37:39.712Z,37.40
2018-07-06T18:47:45.972Z,36.50
2018-07-06T18:52:49.308Z,36.10
2018-07-06T18:57:52.616Z,35.20
2018-07-06T19:02:56.200Z,35.70
2018-07-06T19:08:00.012Z,34.60
2018-07-06T19:13:03.382Z,34.80
2018-07-06T19:18:06.847Z,33.40
2018-07-06T19:23:10.493Z,33.90
2018-07-06T19:28:13.787Z,33.80
2018-07-06T19:33:17.039Z,34.30
2018-07-06T19:38:20.404Z,34.80
2018-07-06T19:43:23.666Z,35.40
2018-07-06T19:48:27.038Z,35.90
2018-07-06T19:53:30.257Z,35.70
2018-07-06T19:58:33.547Z,35.30
2018-07-06T20:03:36.942Z,35.30
2018-07-06T20:08:40.410Z,33.60
2018-07-06T20:13:43.653Z,33.00
2018-07-06T20:18:46.869Z,32.80
2018-07-06T20:23:50.159Z,31.70
2018-07-06T20:28:53.386Z,31.30
2018-07-06T20:33:56.600Z,31.70
2018-07-06T20:39:00.181Z,31.20
2018-07-06T20:44:03.490Z,31.00
2018-07-06T20:49:06.739Z,31.30
2018-07-06T20:54:09.999Z,31.30
2018-07-06T20:59:13.260Z,30.80
2018-07-06T21:04:16.488Z,31.40
2018-07-06T21:09:20.243Z,31.00
2018-07-06T21:14:23.849Z,31.10
2018-07-06T21:19:27.192Z,30.20
2018-07-06T21:24:30.479Z,30.50
2018-07-06T21:29:33.666Z,30.20
2018-07-06T21:34:37.081Z,30.30
2018-07-06T21:39:40.923Z,30.90
2018-07-06T21:44:44.193Z,30.80
2018-07-06T21:49:47.986Z,31.70
2018-07-06T21:54:51.676Z,30.60
2018-07-06T21:59:55.244Z,30.10
2018-07-06T22:04:58.540Z,31.50
2018-07-06T22:10:02.809Z,31.00
2018-07-06T22:15:06.057Z,30.10
2018-07-06T22:20:09.549Z,29.80
2018-07-06T22:25:12.781Z,30.00
2018-07-06T22:30:16.013Z,29.90
2018-07-06T22:35:19.403Z,29.90
2018-07-06T22:40:22.633Z,29.90
2018-07-06T22:45:26.387Z,30.00
2018-07-06T22:50:29.787Z,29.80
2018-07-06T22:55:33.116Z,30.00
2018-07-06T23:00:36.406Z,30.20
2018-07-06T23:05:39.795Z,30.10
2018-07-06T23:10:43.119Z,30.10
2018-07-06T23:15:46.929Z,30.20
2018-07-06T23:20:50.313Z,30.10
2018-07-06T23:25:53.557Z,30.30
2018-07-06T23:30:56.839Z,30.40
2018-07-06T23:36:00.110Z,30.40
2018-07-06T23:41:03.297Z,30.60
2018-07-06T23:46:06.810Z,30.80
2018-07-06T23:51:10.063Z,30.90
2018-07-06T23:56:13.654Z,33.00
